sensor_id;sensor_type;location;lat;lon;timestamp;pressure;altitude;pressure_sealevel;temperature;humidity
23417;BME280;11881;42.432;25.632;2024-03-29T00:00:44;98903.97;;;13.15;100.00
23417;BME280;11881;42.432;25.632;2024-03-29T00:03:10;98898.31;;;13.18;100.00
23417;BME280;11881;42.432;25.632;2024-03-29T00:05:37;98898.28;;;13.10;100.00
23417;BME280;11881;42.432;25.632;2024-03-29T00:08:05;98900.06;;;12.93;100.00
23417;BME280;11881;42.432;25.632;2024-03-29T00:10:31;98906.97;;;13.03;100.00
23417;BME280;11881;42.432;25.632;2024-03-29T00:12:56;98901.78;;;13.02;100.00
23417;BME280;11881;42.432;25.632;2024-03-29T00:15:22;98907.78;;;13.04;100.00
23417;BME280;11881;42.432;25.632;2024-03-29T00:17:48;98898.94;;;12.95;100.00
23417;BME280;11881;42.432;25.632;2024-03-29T00:20:13;98905.22;;;12.78;100.00
23417;BME280;11881;42.432;25.632;2024-03-29T00:22:39;98908.56;;;12.80;100.00
23417;BME280;11881;42.432;25.632;2024-03-29T00:25:05;98911.28;;;12.88;100.00
23417;BME280;11881;42.432;25.632;2024-03-29T00:27:31;98913.97;;;12.88;100.00
23417;BME280;11881;42.432;25.632;2024-03-29T00:29:58;98910.59;;;12.86;100.00
23417;BME280;11881;42.432;25.632;2024-03-29T00:32:23;98917.78;;;12.86;100.00
23417;BME280;11881;42.432;25.632;2024-03-29T00:34:52;98916.09;;;12.85;100.00
23417;BME280;11881;42.432;25.632;2024-03-29T00:37:19;98917.75;;;12.77;100.00
23417;BME280;11881;42.432;25.632;2024-03-29T00:39:45;98906.59;;;12.82;100.00
23417;BME280;11881;42.432;25.632;2024-03-29T00:42:11;98910.03;;;12.66;100.00
23417;BME280;11881;42.432;25.632;2024-03-29T00:44:41;98907.19;;;12.60;100.00
23417;BME280;11881;42.432;25.632;2024-03-29T00:47:07;98907.19;;;12.68;100.00
23417;BME280;11881;42.432;25.632;2024-03-29T00:49:33;98897.97;;;12.54;100.00
23417;BME280;11881;42.432;25.632;2024-03-29T00:52:00;98903.94;;;12.48;100.00
23417;BME280;11881;42.432;25.632;2024-03-29T00:54:25;98911.13;;;12.47;100.00
23417;BME280;11881;42.432;25.632;2024-03-29T00:56:51;98908.59;;;12.46;100.00
23417;BME280;11881;42.432;25.632;2024-03-29T00:59:17;98908.69;;;12.62;100.00
23417;BME280;11881;42.432;25.632;2024-03-29T01:01:43;98910.34;;;12.63;100.00
23417;BME280;11881;42.432;25.632;2024-03-29T01:04:08;98908.50;;;12.64;100.00
23417;BME280;11881;42.432;25.632;2024-03-29T01:06:34;98922.88;;;12.63;100.00
23417;BME280;11881;42.432;25.632;2024-03-29T01:09:03;98918.44;;;12.45;100.00
23417;BME280;11881;42.432;25.632;2024-03-29T01:11:29;98921.97;;;12.46;100.00
23417;BME280;11881;42.432;25.632;2024-03-29T01:13:55;98916.50;;;12.21;100.00
23417;BME280;11881;42.432;25.632;2024-03-29T01:16:20;98921.03;;;12.29;100.00
23417;BME280;11881;42.432;25.632;2024-03-29T01:18:46;98916.81;;;12.18;100.00
23417;BME280;11881;42.432;25.632;2024-03-29T01:21:15;98923.38;;;12.24;100.00
23417;BME280;11881;42.432;25.632;2024-03-29T01:23:41;98916.03;;;12.26;100.00
23417;BME280;11881;42.432;25.632;2024-03-29T01:26:07;98917.69;;;12.27;100.00
23417;BME280;11881;42.432;25.632;2024-03-29T01:28:33;98919.38;;;12.28;100.00
23417;BME280;11881;42.432;25.632;2024-03-29T01:30:59;98913.16;;;12.19;100.00
23417;BME280;11881;42.432;25.632;2024-03-29T01:33:25;98912.84;;;11.96;100.00
23417;BME280;11881;42.432;25.632;2024-03-29T01:35:51;98917.97;;;12.16;100.00
23417;BME280;11881;42.432;25.632;2024-03-29T01:38:16;98917.56;;;12.03;100.00
23417;BME280;11881;42.432;25.632;2024-03-29T01:40:42;98917.50;;;12.20;100.00
23417;BME280;11881;42.432;25.632;2024-03-29T01:43:08;98916.00;;;12.18;100.00
23417;BME280;11881;42.432;25.632;2024-03-29T01:45:35;98917.00;;;11.99;100.00
23417;BME280;11881;42.432;25.632;2024-03-29T01:48:04;98929.44;;;12.08;100.00
23417;BME280;11881;42.432;25.632;2024-03-29T01:50:31;98931.63;;;12.13;100.00
23417;BME280;11881;42.432;25.632;2024-03-29T01:52:57;98926.19;;;11.96;100.00
23417;BME280;11881;42.432;25.632;2024-03-29T01:55:23;98942.47;;;12.11;100.00
23417;BME280;11881;42.432;25.632;2024-03-29T01:57:49;98948.81;;;12.10;100.00
23417;BME280;11881;42.432;25.632;2024-03-29T02:00:16;98952.00;;;12.14;100.00
23417;BME280;11881;42.432;25.632;2024-03-29T02:02:41;98954.50;;;12.15;100.00
23417;BME280;11881;42.432;25.632;2024-03-29T02:05:07;98953.69;;;12.15;100.00
23417;BME280;11881;42.432;25.632;2024-03-29T02:07:32;98947.53;;;11.96;100.00
23417;BME280;11881;42.432;25.632;2024-03-29T02:09:58;98954.34;;;11.91;100.00
23417;BME280;11881;42.432;25.632;2024-03-29T02:12:25;98965.22;;;11.80;100.00
23417;BME280;11881;42.432;25.632;2024-03-29T02:14:50;98961.06;;;11.77;100.00
23417;BME280;11881;42.432;25.632;2024-03-29T02:17:16;98967.22;;;11.95;100.00
23417;BME280;11881;42.432;25.632;2024-03-29T02:19:41;98985.91;;;11.95;100.00
23417;BME280;11881;42.432;25.632;2024-03-29T02:22:07;98979.25;;;11.99;100.00
23417;BME280;11881;42.432;25.632;2024-03-29T02:24:35;98981.25;;;11.97;100.00
23417;BME280;11881;42.432;25.632;2024-03-29T02:27:01;98985.69;;;11.89;100.00
23417;BME280;11881;42.432;25.632;2024-03-29T02:29:26;98982.88;;;11.90;100.00
23417;BME280;11881;42.432;25.632;2024-03-29T02:31:52;98992.84;;;11.88;100.00
23417;BME280;11881;42.432;25.632;2024-03-29T02:34:17;98987.22;;;11.91;100.00
23417;BME280;11881;42.432;25.632;2024-03-29T02:36:44;98996.66;;;11.68;100.00
23417;BME280;11881;42.432;25.632;2024-03-29T02:39:10;99002.22;;;11.75;100.00
23417;BME280;11881;42.432;25.632;2024-03-29T02:41:35;99003.44;;;11.80;100.00
23417;BME280;11881;42.432;25.632;2024-03-29T02:44:01;99010.03;;;11.86;100.00
23417;BME280;11881;42.432;25.632;2024-03-29T02:46:27;99003.78;;;11.95;100.00
23417;BME280;11881;42.432;25.632;2024-03-29T02:48:52;99013.13;;;11.81;100.00
23417;BME280;11881;42.432;25.632;2024-03-29T02:51:18;99008.56;;;11.73;100.00
23417;BME280;11881;42.432;25.632;2024-03-29T02:53:43;99018.47;;;11.81;100.00
23417;BME280;11881;42.432;25.632;2024-03-29T02:56:09;99012.53;;;11.87;100.00
23417;BME280;11881;42.432;25.632;2024-03-29T02:58:35;99011.53;;;11.88;100.00
23417;BME280;11881;42.432;25.632;2024-03-29T03:01:09;99015.56;;;11.92;100.00
23417;BME280;11881;42.432;25.632;2024-03-29T03:03:35;99019.91;;;11.93;100.00
23417;BME280;11881;42.432;25.632;2024-03-29T03:06:01;99021.28;;;11.80;100.00
23417;BME280;11881;42.432;25.632;2024-03-29T03:08:28;99030.00;;;11.82;100.00
23417;BME280;11881;42.432;25.632;2024-03-29T03:11:12;99023.53;;;11.84;100.00
23417;BME280;11881;42.432;25.632;2024-03-29T03:13:38;99025.56;;;11.72;100.00
23417;BME280;11881;42.432;25.632;2024-03-29T03:16:03;99022.88;;;11.72;100.00
23417;BME280;11881;42.432;25.632;2024-03-29T03:18:29;99023.13;;;11.79;100.00
23417;BME280;11881;42.432;25.632;2024-03-29T03:20:55;99024.56;;;11.73;100.00
23417;BME280;11881;42.432;25.632;2024-03-29T03:23:23;99025.06;;;11.59;100.00
23417;BME280;11881;42.432;25.632;2024-03-29T03:25:56;99029.72;;;11.57;100.00
23417;BME280;11881;42.432;25.632;2024-03-29T03:28:22;99029.34;;;11.70;100.00
23417;BME280;11881;42.432;25.632;2024-03-29T03:30:49;99035.16;;;11.65;100.00
23417;BME280;11881;42.432;25.632;2024-03-29T03:33:14;99038.09;;;11.44;100.00
23417;BME280;11881;42.432;25.632;2024-03-29T03:35:41;99042.63;;;11.62;100.00
23417;BME280;11881;42.432;25.632;2024-03-29T03:38:07;99045.53;;;11.68;100.00
23417;BME280;11881;42.432;25.632;2024-03-29T03:40:33;99058.53;;;11.54;100.00
23417;BME280;11881;42.432;25.632;2024-03-29T03:42:59;99064.34;;;11.49;100.00
23417;BME280;11881;42.432;25.632;2024-03-29T03:45:25;99066.25;;;11.57;100.00
23417;BME280;11881;42.432;25.632;2024-03-29T03:47:50;99065.97;;;11.60;100.00
23417;BME280;11881;42.432;25.632;2024-03-29T03:50:15;99078.53;;;11.67;100.00
23417;BME280;11881;42.432;25.632;2024-03-29T03:52:41;99074.53;;;11.54;100.00
23417;BME280;11881;42.432;25.632;2024-03-29T03:55:07;99077.97;;;11.46;100.00
23417;BME280;11881;42.432;25.632;2024-03-29T03:57:32;99085.03;;;11.37;100.00
23417;BME280;11881;42.432;25.632;2024-03-29T03:59:59;99084.97;;;11.47;100.00
23417;BME280;11881;42.432;25.632;2024-03-29T04:02:25;99091.94;;;11.58;100.00
23417;BME280;11881;42.432;25.632;2024-03-29T04:04:50;99088.97;;;11.61;100.00
23417;BME280;11881;42.432;25.632;2024-03-29T04:07:16;99095.59;;;11.57;100.00
23417;BME280;11881;42.432;25.632;2024-03-29T04:09:41;99086.59;;;11.58;100.00
23417;BME280;11881;42.432;25.632;2024-03-29T04:12:07;99092.16;;;11.64;100.00
23417;BME280;11881;42.432;25.632;2024-03-29T04:14:32;99082.66;;;11.62;100.00
23417;BME280;11881;42.432;25.632;2024-03-29T04:16:58;99082.34;;;11.65;100.00
23417;BME280;11881;42.432;25.632;2024-03-29T04:19:23;99087.38;;;11.68;100.00
23417;BME280;11881;42.432;25.632;2024-03-29T04:21:49;99084.09;;;11.74;100.00
23417;BME280;11881;42.432;25.632;2024-03-29T04:24:14;99089.56;;;11.82;100.00
23417;BME280;11881;42.432;25.632;2024-03-29T04:26:40;99093.59;;;11.86;100.00
23417;BME280;11881;42.432;25.632;2024-03-29T04:29:05;99099.72;;;11.69;100.00
23417;BME280;11881;42.432;25.632;2024-03-29T04:31:31;99099.25;;;11.83;100.00
23417;BME280;11881;42.432;25.632;2024-03-29T04:33:56;99107.13;;;11.85;100.00
23417;BME280;11881;42.432;25.632;2024-03-29T04:36:22;99117.53;;;11.78;100.00
23417;BME280;11881;42.432;25.632;2024-03-29T04:38:47;99115.75;;;11.96;100.00
23417;BME280;11881;42.432;25.632;2024-03-29T04:41:13;99118.41;;;11.96;100.00
23417;BME280;11881;42.432;25.632;2024-03-29T04:43:40;99124.34;;;11.90;100.00
23417;BME280;11881;42.432;25.632;2024-03-29T04:46:10;99130.16;;;12.04;100.00
23417;BME280;11881;42.432;25.632;2024-03-29T04:48:36;99132.22;;;12.10;100.00
23417;BME280;11881;42.432;25.632;2024-03-29T04:51:03;99133.97;;;12.19;100.00
23417;BME280;11881;42.432;25.632;2024-03-29T04:53:28;99137.09;;;12.32;100.00
23417;BME280;11881;42.432;25.632;2024-03-29T04:55:54;99127.81;;;12.62;100.00
23417;BME280;11881;42.432;25.632;2024-03-29T04:58:22;99130.63;;;12.78;100.00
23417;BME280;11881;42.432;25.632;2024-03-29T05:00:48;99142.53;;;12.84;100.00
23417;BME280;11881;42.432;25.632;2024-03-29T05:03:14;99147.44;;;12.71;100.00
23417;BME280;11881;42.432;25.632;2024-03-29T05:05:39;99146.06;;;12.93;100.00
23417;BME280;11881;42.432;25.632;2024-03-29T05:08:05;99144.97;;;13.03;100.00
23417;BME280;11881;42.432;25.632;2024-03-29T05:10:31;99142.72;;;13.17;100.00
23417;BME280;11881;42.432;25.632;2024-03-29T05:12:56;99143.34;;;13.37;100.00
23417;BME280;11881;42.432;25.632;2024-03-29T05:15:21;99153.75;;;13.40;100.00
23417;BME280;11881;42.432;25.632;2024-03-29T05:17:47;99163.13;;;13.44;100.00
23417;BME280;11881;42.432;25.632;2024-03-29T05:20:12;99162.81;;;13.47;100.00
23417;BME280;11881;42.432;25.632;2024-03-29T05:22:38;99176.69;;;13.50;100.00
23417;BME280;11881;42.432;25.632;2024-03-29T05:25:04;99168.16;;;13.47;100.00
23417;BME280;11881;42.432;25.632;2024-03-29T05:27:30;99176.38;;;13.53;100.00
23417;BME280;11881;42.432;25.632;2024-03-29T05:29:55;99176.94;;;13.65;100.00
23417;BME280;11881;42.432;25.632;2024-03-29T05:32:21;99177.59;;;13.67;100.00
23417;BME280;11881;42.432;25.632;2024-03-29T05:34:46;99173.97;;;13.76;100.00
23417;BME280;11881;42.432;25.632;2024-03-29T05:37:12;99178.88;;;13.89;100.00
23417;BME280;11881;42.432;25.632;2024-03-29T05:39:37;99184.59;;;14.02;100.00
23417;BME280;11881;42.432;25.632;2024-03-29T05:42:03;99187.81;;;14.14;100.00
23417;BME280;11881;42.432;25.632;2024-03-29T05:44:28;99186.84;;;14.23;100.00
23417;BME280;11881;42.432;25.632;2024-03-29T05:46:54;99184.50;;;14.28;100.00
23417;BME280;11881;42.432;25.632;2024-03-29T05:49:19;99190.88;;;14.27;100.00
23417;BME280;11881;42.432;25.632;2024-03-29T05:51:45;99200.09;;;14.33;100.00
23417;BME280;11881;42.432;25.632;2024-03-29T05:54:11;99202.28;;;14.46;100.00
23417;BME280;11881;42.432;25.632;2024-03-29T05:56:36;99204.31;;;14.60;100.00
23417;BME280;11881;42.432;25.632;2024-03-29T05:59:02;99207.38;;;14.73;100.00
23417;BME280;11881;42.432;25.632;2024-03-29T06:01:28;99209.88;;;14.83;100.00
23417;BME280;11881;42.432;25.632;2024-03-29T06:03:55;99212.41;;;14.84;100.00
23417;BME280;11881;42.432;25.632;2024-03-29T06:06:21;99213.88;;;14.95;100.00
23417;BME280;11881;42.432;25.632;2024-03-29T06:08:50;99217.06;;;15.07;100.00
23417;BME280;11881;42.432;25.632;2024-03-29T06:11:16;99217.91;;;14.99;100.00
23417;BME280;11881;42.432;25.632;2024-03-29T06:13:42;99208.66;;;15.18;100.00
23417;BME280;11881;42.432;25.632;2024-03-29T06:16:21;99217.06;;;15.31;100.00
23417;BME280;11881;42.432;25.632;2024-03-29T06:19:05;99212.81;;;15.45;100.00
23417;BME280;11881;42.432;25.632;2024-03-29T06:21:31;99222.19;;;15.65;100.00
23417;BME280;11881;42.432;25.632;2024-03-29T06:24:07;99224.28;;;15.06;100.00
23417;BME280;11881;42.432;25.632;2024-03-29T06:26:33;99226.94;;;15.31;100.00
23417;BME280;11881;42.432;25.632;2024-03-29T06:29:00;99230.97;;;15.18;100.00
23417;BME280;11881;42.432;25.632;2024-03-29T06:31:26;99232.00;;;14.93;100.00
23417;BME280;11881;42.432;25.632;2024-03-29T06:33:52;99237.03;;;14.96;100.00
23417;BME280;11881;42.432;25.632;2024-03-29T06:36:17;99237.84;;;15.21;100.00
23417;BME280;11881;42.432;25.632;2024-03-29T06:38:43;99241.06;;;15.08;100.00
23417;BME280;11881;42.432;25.632;2024-03-29T06:41:08;99245.06;;;15.21;100.00
23417;BME280;11881;42.432;25.632;2024-03-29T06:43:34;99252.25;;;15.44;100.00
23417;BME280;11881;42.432;25.632;2024-03-29T06:45:59;99253.38;;;15.75;100.00
23417;BME280;11881;42.432;25.632;2024-03-29T06:48:28;99249.66;;;15.84;100.00
23417;BME280;11881;42.432;25.632;2024-03-29T06:50:53;99257.69;;;16.23;100.00
23417;BME280;11881;42.432;25.632;2024-03-29T06:53:19;99255.94;;;16.38;100.00
23417;BME280;11881;42.432;25.632;2024-03-29T06:55:45;99266.84;;;16.45;100.00
23417;BME280;11881;42.432;25.632;2024-03-29T06:58:11;99272.72;;;16.48;100.00
23417;BME280;11881;42.432;25.632;2024-03-29T07:00:36;99277.91;;;16.81;100.00
23417;BME280;11881;42.432;25.632;2024-03-29T07:03:02;99279.28;;;16.77;100.00
23417;BME280;11881;42.432;25.632;2024-03-29T07:05:27;99274.44;;;16.95;100.00
23417;BME280;11881;42.432;25.632;2024-03-29T07:07:53;99283.69;;;17.16;100.00
23417;BME280;11881;42.432;25.632;2024-03-29T07:10:19;99284.19;;;17.19;100.00
23417;BME280;11881;42.432;25.632;2024-03-29T07:12:44;99290.22;;;17.21;100.00
23417;BME280;11881;42.432;25.632;2024-03-29T07:15:10;99295.06;;;17.26;100.00
23417;BME280;11881;42.432;25.632;2024-03-29T07:17:35;99294.50;;;17.31;100.00
23417;BME280;11881;42.432;25.632;2024-03-29T07:20:01;99286.25;;;17.32;100.00
23417;BME280;11881;42.432;25.632;2024-03-29T07:22:26;99291.50;;;17.48;100.00
23417;BME280;11881;42.432;25.632;2024-03-29T07:24:54;99299.47;;;17.56;100.00
23417;BME280;11881;42.432;25.632;2024-03-29T07:27:20;99299.50;;;17.71;100.00
23417;BME280;11881;42.432;25.632;2024-03-29T07:29:46;99293.97;;;17.73;100.00
23417;BME280;11881;42.432;25.632;2024-03-29T07:32:11;99301.41;;;17.86;100.00
23417;BME280;11881;42.432;25.632;2024-03-29T07:34:37;99296.28;;;17.91;100.00
23417;BME280;11881;42.432;25.632;2024-03-29T07:37:04;99306.63;;;18.02;100.00
23417;BME280;11881;42.432;25.632;2024-03-29T07:39:30;99306.63;;;18.02;100.00
23417;BME280;11881;42.432;25.632;2024-03-29T07:41:55;99312.56;;;18.12;100.00
23417;BME280;11881;42.432;25.632;2024-03-29T07:44:21;99306.03;;;18.36;100.00
23417;BME280;11881;42.432;25.632;2024-03-29T07:46:46;99313.22;;;18.14;95.06
23417;BME280;11881;42.432;25.632;2024-03-29T07:49:14;99300.56;;;18.29;96.69
23417;BME280;11881;42.432;25.632;2024-03-29T07:51:39;99301.72;;;18.56;92.30
23417;BME280;11881;42.432;25.632;2024-03-29T07:54:05;99309.97;;;18.84;89.25
23417;BME280;11881;42.432;25.632;2024-03-29T07:56:30;99306.16;;;19.00;87.89
23417;BME280;11881;42.432;25.632;2024-03-29T07:58:56;99303.94;;;19.04;85.53
23417;BME280;11881;42.432;25.632;2024-03-29T08:01:22;99313.50;;;19.06;83.89
23417;BME280;11881;42.432;25.632;2024-03-29T08:03:52;99306.41;;;18.84;83.74
23417;BME280;11881;42.432;25.632;2024-03-29T08:06:21;99320.25;;;19.17;83.86
23417;BME280;11881;42.432;25.632;2024-03-29T08:08:49;99317.53;;;19.38;82.09
23417;BME280;11881;42.432;25.632;2024-03-29T08:11:14;99319.31;;;19.53;84.13
23417;BME280;11881;42.432;25.632;2024-03-29T08:13:40;99313.31;;;19.79;81.84
23417;BME280;11881;42.432;25.632;2024-03-29T08:16:06;99316.38;;;20.04;81.05
23417;BME280;11881;42.432;25.632;2024-03-29T08:18:32;99318.50;;;20.08;83.55
23417;BME280;11881;42.432;25.632;2024-03-29T08:20:59;99310.66;;;20.20;83.96
23417;BME280;11881;42.432;25.632;2024-03-29T08:23:25;99318.53;;;20.15;84.42
23417;BME280;11881;42.432;25.632;2024-03-29T08:25:51;99306.28;;;20.19;85.36
23417;BME280;11881;42.432;25.632;2024-03-29T08:28:20;99304.31;;;20.41;84.71
23417;BME280;11881;42.432;25.632;2024-03-29T08:30:49;99294.47;;;20.33;83.96
23417;BME280;11881;42.432;25.632;2024-03-29T08:33:22;99296.50;;;20.59;84.22
23417;BME280;11881;42.432;25.632;2024-03-29T08:35:48;99282.16;;;20.79;84.73
23417;BME280;11881;42.432;25.632;2024-03-29T08:38:13;99288.84;;;20.76;82.02
23417;BME280;11881;42.432;25.632;2024-03-29T08:40:39;99290.13;;;21.00;79.21
23417;BME280;11881;42.432;25.632;2024-03-29T08:43:07;99288.06;;;21.09;77.16
23417;BME280;11881;42.432;25.632;2024-03-29T08:45:32;99284.13;;;21.11;75.22
23417;BME280;11881;42.432;25.632;2024-03-29T08:47:58;99280.19;;;21.40;74.28
23417;BME280;11881;42.432;25.632;2024-03-29T08:50:23;99287.06;;;21.49;70.39
23417;BME280;11881;42.432;25.632;2024-03-29T08:52:49;99287.03;;;21.76;69.69
23417;BME280;11881;42.432;25.632;2024-03-29T08:55:14;99291.44;;;21.70;64.33
23417;BME280;11881;42.432;25.632;2024-03-29T08:57:40;99288.47;;;21.85;62.64
23417;BME280;11881;42.432;25.632;2024-03-29T09:00:08;99275.84;;;22.30;61.64
23417;BME280;11881;42.432;25.632;2024-03-29T09:02:33;99275.31;;;22.15;57.05
23417;BME280;11881;42.432;25.632;2024-03-29T09:04:59;99284.84;;;22.24;55.95
23417;BME280;11881;42.432;25.632;2024-03-29T09:07:24;99284.41;;;22.34;56.01
23417;BME280;11881;42.432;25.632;2024-03-29T09:09:50;99283.66;;;22.58;56.88
23417;BME280;11881;42.432;25.632;2024-03-29T09:12:16;99289.56;;;22.94;55.49
23417;BME280;11881;42.432;25.632;2024-03-29T09:14:44;99287.28;;;22.84;54.07
23417;BME280;11881;42.432;25.632;2024-03-29T09:17:09;99279.53;;;22.94;54.18
23417;BME280;11881;42.432;25.632;2024-03-29T09:19:36;99277.50;;;23.15;53.93
23417;BME280;11881;42.432;25.632;2024-03-29T09:22:02;99265.59;;;23.41;53.12
23417;BME280;11881;42.432;25.632;2024-03-29T09:24:27;99265.59;;;23.41;52.78
23417;BME280;11881;42.432;25.632;2024-03-29T09:26:53;99273.00;;;23.52;51.29
23417;BME280;11881;42.432;25.632;2024-03-29T09:29:19;99276.19;;;23.49;50.51
23417;BME280;11881;42.432;25.632;2024-03-29T09:31:48;99268.25;;;23.72;46.62
23417;BME280;11881;42.432;25.632;2024-03-29T09:34:13;99272.09;;;23.83;50.52
23417;BME280;11881;42.432;25.632;2024-03-29T09:36:40;99278.28;;;23.47;48.20
23417;BME280;11881;42.432;25.632;2024-03-29T09:39:05;99269.38;;;23.65;48.77
23417;BME280;11881;42.432;25.632;2024-03-29T09:41:31;99262.91;;;23.84;49.08
23417;BME280;11881;42.432;25.632;2024-03-29T09:44:02;99255.19;;;23.81;48.53
23417;BME280;11881;42.432;25.632;2024-03-29T09:46:28;99263.44;;;23.49;47.65
23417;BME280;11881;42.432;25.632;2024-03-29T09:48:55;99258.09;;;23.36;47.51
23417;BME280;11881;42.432;25.632;2024-03-29T09:51:21;99259.16;;;23.35;48.56
23417;BME280;11881;42.432;25.632;2024-03-29T09:53:47;99252.31;;;23.76;48.46
23417;BME280;11881;42.432;25.632;2024-03-29T09:56:13;99255.75;;;23.89;47.00
23417;BME280;11881;42.432;25.632;2024-03-29T09:58:39;99260.03;;;23.97;46.16
23417;BME280;11881;42.432;25.632;2024-03-29T10:01:06;99256.94;;;24.12;46.64
23417;BME280;11881;42.432;25.632;2024-03-29T10:03:40;99253.06;;;23.83;45.32
23417;BME280;11881;42.432;25.632;2024-03-29T10:06:05;99249.47;;;24.07;45.93
23417;BME280;11881;42.432;25.632;2024-03-29T10:08:34;99253.09;;;24.38;44.77
23417;BME280;11881;42.432;25.632;2024-03-29T10:11:01;99246.22;;;24.35;45.18
23417;BME280;11881;42.432;25.632;2024-03-29T10:13:27;99257.09;;;24.54;44.88
23417;BME280;11881;42.432;25.632;2024-03-29T10:15:53;99237.88;;;24.30;43.61
23417;BME280;11881;42.432;25.632;2024-03-29T10:18:26;99240.22;;;24.45;43.35
23417;BME280;11881;42.432;25.632;2024-03-29T10:21:03;99249.06;;;24.40;43.67
23417;BME280;11881;42.432;25.632;2024-03-29T10:23:30;99236.63;;;23.96;42.83
23417;BME280;11881;42.432;25.632;2024-03-29T10:25:56;99242.66;;;23.98;42.97
23417;BME280;11881;42.432;25.632;2024-03-29T10:28:22;99244.28;;;24.17;43.66
23417;BME280;11881;42.432;25.632;2024-03-29T10:30:49;99225.56;;;24.09;43.71
23417;BME280;11881;42.432;25.632;2024-03-29T10:33:18;99226.31;;;24.35;42.56
23417;BME280;11881;42.432;25.632;2024-03-29T10:35:44;99217.22;;;24.41;42.05
23417;BME280;11881;42.432;25.632;2024-03-29T10:38:10;99215.47;;;24.77;44.61
23417;BME280;11881;42.432;25.632;2024-03-29T10:40:40;99219.13;;;24.71;41.58
23417;BME280;11881;42.432;25.632;2024-03-29T10:43:08;99227.56;;;24.51;41.02
23417;BME280;11881;42.432;25.632;2024-03-29T10:45:38;99224.13;;;24.44;41.65
23417;BME280;11881;42.432;25.632;2024-03-29T10:48:05;99216.13;;;24.60;41.61
23417;BME280;11881;42.432;25.632;2024-03-29T10:50:35;99219.81;;;24.66;41.72
23417;BME280;11881;42.432;25.632;2024-03-29T10:53:01;99213.16;;;24.62;40.60
23417;BME280;11881;42.432;25.632;2024-03-29T10:55:33;99212.63;;;24.72;41.54
23417;BME280;11881;42.432;25.632;2024-03-29T10:58:00;99226.78;;;25.04;40.55
23417;BME280;11881;42.432;25.632;2024-03-29T11:00:28;99223.41;;;24.78;39.89
23417;BME280;11881;42.432;25.632;2024-03-29T11:03:10;99219.53;;;24.98;40.68
23417;BME280;11881;42.432;25.632;2024-03-29T11:05:42;99217.28;;;24.94;39.87
23417;BME280;11881;42.432;25.632;2024-03-29T11:08:10;99214.84;;;24.75;39.98
23417;BME280;11881;42.432;25.632;2024-03-29T11:10:39;99200.88;;;24.71;40.50
23417;BME280;11881;42.432;25.632;2024-03-29T11:15:46;99199.03;;;24.95;41.67
23417;BME280;11881;42.432;25.632;2024-03-29T11:18:13;99204.56;;;24.77;40.68
23417;BME280;11881;42.432;25.632;2024-03-29T11:20:41;99202.41;;;24.67;40.53
23417;BME280;11881;42.432;25.632;2024-03-29T11:23:14;99195.75;;;24.63;40.88
23417;BME280;11881;42.432;25.632;2024-03-29T11:25:44;99196.28;;;24.72;41.09
23417;BME280;11881;42.432;25.632;2024-03-29T11:28:15;99189.78;;;24.96;40.74
23417;BME280;11881;42.432;25.632;2024-03-29T11:30:45;99190.81;;;25.13;39.98
23417;BME280;11881;42.432;25.632;2024-03-29T11:33:30;99195.59;;;24.88;40.25
23417;BME280;11881;42.432;25.632;2024-03-29T11:36:21;99204.25;;;24.97;39.71
23417;BME280;11881;42.432;25.632;2024-03-29T11:38:54;99201.25;;;25.16;39.54
23417;BME280;11881;42.432;25.632;2024-03-29T11:41:20;99197.00;;;24.79;38.86
23417;BME280;11881;42.432;25.632;2024-03-29T11:43:53;99195.66;;;24.69;39.08
23417;BME280;11881;42.432;25.632;2024-03-29T11:46:19;99202.41;;;24.67;39.35
23417;BME280;11881;42.432;25.632;2024-03-29T11:48:45;99198.81;;;24.97;38.00
23417;BME280;11881;42.432;25.632;2024-03-29T11:51:17;99187.22;;;24.59;38.03
23417;BME280;11881;42.432;25.632;2024-03-29T11:53:46;99185.72;;;24.75;38.51
23417;BME280;11881;42.432;25.632;2024-03-29T11:56:11;99192.88;;;24.88;39.42
23417;BME280;11881;42.432;25.632;2024-03-29T11:58:37;99183.75;;;24.82;39.70
23417;BME280;11881;42.432;25.632;2024-03-29T12:01:04;99188.00;;;24.90;39.31
23417;BME280;11881;42.432;25.632;2024-03-29T12:03:31;99173.19;;;24.86;39.43
23417;BME280;11881;42.432;25.632;2024-03-29T12:05:59;99179.38;;;25.05;40.32
23417;BME280;11881;42.432;25.632;2024-03-29T12:08:29;99171.41;;;24.80;39.96
23417;BME280;11881;42.432;25.632;2024-03-29T12:10:55;99174.44;;;25.13;39.95
23417;BME280;11881;42.432;25.632;2024-03-29T12:13:21;99180.25;;;25.05;38.81
23417;BME280;11881;42.432;25.632;2024-03-29T12:15:46;99178.25;;;25.12;38.49
23417;BME280;11881;42.432;25.632;2024-03-29T12:18:12;99181.00;;;24.82;39.35
23417;BME280;11881;42.432;25.632;2024-03-29T12:20:41;99187.16;;;24.78;39.27
23417;BME280;11881;42.432;25.632;2024-03-29T12:23:08;99175.97;;;24.56;39.50
23417;BME280;11881;42.432;25.632;2024-03-29T12:25:36;99176.34;;;24.59;40.19
23417;BME280;11881;42.432;25.632;2024-03-29T12:28:02;99183.94;;;24.69;41.04
23417;BME280;11881;42.432;25.632;2024-03-29T12:30:30;99177.56;;;24.45;40.89
23417;BME280;11881;42.432;25.632;2024-03-29T12:33:07;99171.47;;;24.61;40.66
23417;BME280;11881;42.432;25.632;2024-03-29T12:35:33;99172.66;;;24.54;40.33
23417;BME280;11881;42.432;25.632;2024-03-29T12:38:00;99174.13;;;24.38;40.33
23417;BME280;11881;42.432;25.632;2024-03-29T12:40:27;99172.53;;;24.30;40.17
23417;BME280;11881;42.432;25.632;2024-03-29T12:42:56;99175.47;;;24.29;40.42